Terminal Aerodrome Forecast
Issued by NWS Melbourne, FL

Home | Current Version | Previous Version | Text Only | Print | Product List | Glossary On
Versions: 1 2 3 4 5 6 7 8 9 10 11 12 13 14 15 16 17 18 19 20 21 22 23 24 25 26
000
FTUS42 KMLB 061126
TAFMCO
TAF
KMCO 061126Z 0612/0712 36006KT P6SM FEW012 SCT080 BKN160
     FM061300 01011KT P6SM VCSH SCT015 BKN035 BKN120
     FM061800 01013G20KT P6SM SCT025 BKN100 BKN250
     FM070000 36008KT P6SM FEW020 SCT100 SCT250
     FM070600 32007KT P6SM SCT250=

USA.gov is the U.S. government's official web portal to all federal, state and local government web resources and services.